Time;durP1;ratioP1;P1;durP2;ratioP2;P2;SDS_P1;SDS_P2;PMS_P1;PMS_P2;Temp;Humidity;BMP_temperature;BMP_pressure;BME280_temperature;BME280_humidity;BME280_pressure;Samples;Min_cycle;Max_cycle;Signal;HPM_P1;HPM_P2
2023/12/05 00:00:26;;;;;;;12.93;9.35;;;;;;;4.49;100.00;103062.75;5131843;27;20043;-76
2023/12/05 00:02:52;;;;;;;13.20;10.07;;;;;;;4.78;100.00;103105.28;5131658;27;20076;-76
2023/12/05 00:05:17;;;;;;;13.65;9.90;;;;;;;4.69;100.00;103098.16;5131567;27;20110;-77
2023/12/05 00:07:43;;;;;;;12.35;9.90;;;;;;;4.14;100.00;103021.69;5131122;27;20122;-74
2023/12/05 00:10:09;;;;;;;11.68;9.45;;;;;;;4.40;100.00;103068.22;5113571;27;20027;-76
2023/12/05 00:12:35;;;;;;;12.30;8.75;;;;;;;4.67;100.00;103079.59;5130999;27;20058;-76
2023/12/05 00:15:00;;;;;;;11.27;9.30;;;;;;;3.90;100.00;102989.47;5131351;27;20047;-76
2023/12/05 00:17:26;;;;;;;12.63;9.50;;;;;;;4.16;100.00;103009.19;5132100;27;20488;-76
2023/12/05 00:19:51;;;;;;;11.60;8.85;;;;;;;4.17;100.00;103026.00;5131674;27;20028;-75
2023/12/05 00:22:17;;;;;;;12.23;9.15;;;;;;;4.53;100.00;103073.06;5112344;27;20027;-75
2023/12/05 00:24:43;;;;;;;10.05;8.30;;;;;;;4.41;100.00;103085.06;5131573;27;20023;-76
2023/12/05 00:27:09;;;;;;;11.52;9.20;;;;;;;3.98;100.00;103008.31;5131558;27;20027;-75
2023/12/05 00:29:36;;;;;;;13.32;10.05;;;;;;;4.25;100.00;103017.16;5113037;27;20084;-76
2023/12/05 00:32:05;;;;;;;12.68;10.00;;;;;;;4.19;100.00;103001.75;5131598;27;20134;-76
2023/12/05 00:34:30;;;;;;;13.38;9.73;;;;;;;4.53;100.00;103068.03;5130350;27;20122;-77
2023/12/05 00:36:56;;;;;;;13.02;9.95;;;;;;;4.21;100.00;103012.75;5131493;27;20110;-77
2023/12/05 00:39:21;;;;;;;14.50;9.70;;;;;;;4.08;100.00;102987.81;5131448;27;20031;-76
2023/12/05 00:41:47;;;;;;;12.63;9.75;;;;;;;4.04;100.00;102989.31;5112934;27;20031;-76
2023/12/05 00:44:13;;;;;;;14.70;9.90;;;;;;;3.80;100.00;102939.50;5130950;27;20024;-76
2023/12/05 00:46:38;;;;;;;13.60;10.43;;;;;;;4.70;100.00;103063.72;5131137;27;20027;-76
2023/12/05 00:49:04;;;;;;;13.77;9.52;;;;;;;4.86;100.00;103068.69;5131194;27;20031;-75
2023/12/05 00:51:29;;;;;;;12.85;9.85;;;;;;;4.31;100.00;103010.75;5130428;27;20034;-72
2023/12/05 00:53:55;;;;;;;15.85;10.55;;;;;;;4.31;100.00;103009.88;5129148;27;20416;-75
2023/12/05 00:56:23;;;;;;;14.18;10.57;;;;;;;4.18;100.00;102973.19;5130615;27;20038;-76
2023/12/05 00:58:48;;;;;;;13.77;9.90;;;;;;;4.85;100.00;103036.72;5130817;27;20027;-75
2023/12/05 01:01:14;;;;;;;14.85;9.85;;;;;;;4.59;100.00;103039.72;5131296;27;20038;-75
2023/12/05 01:03:39;;;;;;;17.70;10.35;;;;;;;4.07;100.00;102908.91;5130792;27;20039;-75
2023/12/05 01:06:05;;;;;;;13.88;10.65;;;;;;;4.34;100.00;103000.81;5111467;27;20031;-74
2023/12/05 01:08:31;;;;;;;13.02;10.15;;;;;;;4.10;100.00;102969.47;5130430;27;20124;-75
2023/12/05 01:10:56;;;;;;;13.30;10.30;;;;;;;3.59;100.00;102878.97;5130610;27;20033;-71
2023/12/05 01:13:24;;;;;;;13.98;10.93;;;;;;;4.79;100.00;103031.41;5111199;27;20107;-75
2023/12/05 01:15:49;;;;;;;14.43;10.57;;;;;;;4.36;100.00;102953.91;5130251;27;20042;-76
2023/12/05 01:18:15;;;;;;;12.35;10.05;;;;;;;4.36;100.00;102953.03;5130014;27;20034;-75
2023/12/05 01:20:40;;;;;;;13.13;10.05;;;;;;;4.32;100.00;102956.19;5129973;27;20027;-76
2023/12/05 01:23:06;;;;;;;14.73;10.68;;;;;;;4.25;100.00;102949.16;5130015;27;20023;-76
2023/12/05 01:25:31;;;;;;;14.70;11.25;;;;;;;4.24;100.00;102962.53;5130102;27;20051;-76
2023/12/05 01:27:58;;;;;;;16.08;10.85;;;;;;;4.61;100.00;102992.78;5129981;27;20041;-75
2023/12/05 01:30:23;;;;;;;16.50;11.40;;;;;;;4.29;100.00;102943.47;5111785;27;20632;-75
2023/12/05 01:32:49;;;;;;;14.88;11.10;;;;;;;4.56;100.00;102969.03;5130220;27;20093;-76
2023/12/05 01:35:14;;;;;;;16.45;10.95;;;;;;;4.63;100.00;102938.28;5130241;27;20027;-76
2023/12/05 01:37:40;;;;;;;14.95;10.88;;;;;;;4.55;100.00;102955.59;5130423;27;20461;-76
2023/12/05 01:40:09;;;;;;;14.43;10.38;;;;;;;4.50;100.00;102941.06;5129708;27;20031;-76
2023/12/05 01:42:36;;;;;;;14.18;10.85;;;;;;;5.12;100.00;103003.50;5111435;27;20038;-72
2023/12/05 01:45:03;;;;;;;15.35;10.73;;;;;;;4.87;100.00;103025.06;5130330;27;20030;-76
2023/12/05 01:47:28;;;;;;;14.50;10.65;;;;;;;4.91;100.00;103022.72;5129780;27;20023;-72
2023/12/05 01:49:54;;;;;;;15.02;11.32;;;;;;;4.91;100.00;103006.75;5129297;27;20038;-75
2023/12/05 01:52:20;;;;;;;14.57;11.60;;;;;;;5.13;100.00;102995.13;5111324;27;20030;-75
2023/12/05 01:54:45;;;;;;;15.85;11.73;;;;;;;4.56;100.00;102917.00;5129402;27;20023;-75
2023/12/05 01:57:11;;;;;;;14.10;11.30;;;;;;;4.69;100.00;102918.41;5129344;27;20033;-75
2023/12/05 01:59:37;;;;;;;17.63;13.00;;;;;;;4.79;100.00;102955.81;5129973;27;20027;-75
2023/12/05 02:02:03;;;;;;;16.80;13.10;;;;;;;5.10;100.00;102969.78;5127592;27;20035;-74
2023/12/05 02:04:31;;;;;;;19.52;14.55;;;;;;;4.63;100.00;102908.06;5111259;28;20397;-74
2023/12/05 02:06:57;;;;;;;20.65;14.95;;;;;;;4.58;100.00;102891.88;5129245;27;20147;-74
2023/12/05 02:09:23;;;;;;;20.30;14.32;;;;;;;4.96;100.00;102960.78;5110738;28;20062;-75
2023/12/05 02:11:49;;;;;;;21.20;13.80;;;;;;;4.91;100.00;102958.84;5128902;28;20023;-75
2023/12/05 02:14:15;;;;;;;19.05;13.82;;;;;;;4.46;100.00;102851.91;5129620;27;20497;-75
2023/12/05 02:16:50;;;;;;;17.60;13.52;;;;;;;4.59;100.00;102871.81;5110814;28;20140;-75
2023/12/05 02:19:46;;;;;;;17.55;13.43;;;;;;;5.11;100.00;102950.50;5128833;28;20034;-75
2023/12/05 02:22:37;;;;;;;18.60;13.55;;;;;;;4.61;100.00;102885.31;5128882;28;20023;-75
2023/12/05 02:25:52;;;;;;;19.75;14.45;;;;;;;4.94;100.00;102957.31;5130832;27;20069;-74
2023/12/05 02:28:18;;;;;;;19.77;14.00;;;;;;;5.09;100.00;102937.78;5132955;27;20037;-75
2023/12/05 02:30:44;;;;;;;18.88;13.40;;;;;;;4.45;100.00;102872.84;5114395;27;20035;-75
2023/12/05 02:33:09;;;;;;;19.35;13.95;;;;;;;4.98;100.00;102949.09;5132963;27;20027;-76
2023/12/05 02:35:35;;;;;;;18.38;13.68;;;;;;;4.82;100.00;102936.63;5132589;27;20034;-74
2023/12/05 02:38:10;;;;;;;19.00;14.27;;;;;;;5.03;100.00;102931.66;5114586;27;20070;-75
2023/12/05 02:40:56;;;;;;;20.55;15.15;;;;;;;4.97;100.00;102933.91;5133050;27;20034;-75
2023/12/05 02:43:32;;;;;;;19.23;14.43;;;;;;;4.64;100.00;102850.16;5114830;27;20088;-74
2023/12/05 02:45:59;;;;;;;20.15;15.00;;;;;;;4.84;100.00;102898.88;5132509;27;20057;-75
2023/12/05 02:48:26;;;;;;;21.27;15.43;;;;;;;4.90;100.00;102934.44;5132763;27;20035;-76
2023/12/05 02:50:54;;;;;;;19.27;15.00;;;;;;;4.62;100.00;102848.38;5132509;27;20103;-74
2023/12/05 02:53:19;;;;;;;21.77;15.77;;;;;;;4.90;100.00;102926.88;5133464;27;20496;-75
2023/12/05 02:55:48;;;;;;;20.52;15.55;;;;;;;4.44;100.00;102857.69;5132913;27;20023;-76
2023/12/05 02:58:14;;;;;;;24.88;16.23;;;;;;;4.32;100.00;102790.00;5133169;27;20101;-76
2023/12/05 03:00:39;;;;;;;21.48;16.42;;;;;;;4.68;100.00;102857.06;5132967;27;20446;-75
2023/12/05 03:03:04;;;;;;;22.17;16.13;;;;;;;4.76;100.00;102878.41;5114649;27;20023;-75
2023/12/05 03:05:30;;;;;;;24.92;16.77;;;;;;;4.94;100.00;102911.09;5133170;27;20058;-77
2023/12/05 03:07:55;;;;;;;23.63;17.10;;;;;;;4.75;100.00;102896.00;5114018;27;20051;-77
2023/12/05 03:10:21;;;;;;;25.20;17.13;;;;;;;4.59;100.00;102886.91;5132488;27;20035;-76
2023/12/05 03:12:46;;;;;;;23.00;16.52;;;;;;;4.69;100.00;102868.88;5133375;27;20031;-76
2023/12/05 03:15:12;;;;;;;27.55;17.70;;;;;;;4.22;100.00;102818.97;5132785;27;20114;-77
2023/12/05 03:17:38;;;;;;;26.90;18.08;;;;;;;4.27;100.00;102815.00;5132738;27;20026;-81
2023/12/05 03:20:04;;;;;;;25.05;17.85;;;;;;;4.45;100.00;102793.91;5114261;27;20030;-76
2023/12/05 03:22:30;;;;;;;29.33;19.02;;;;;;;4.65;100.00;102867.03;5130904;27;20531;-77
2023/12/05 03:24:55;;;;;;;28.17;18.85;;;;;;;4.78;100.00;102863.34;5132729;27;20019;-75
2023/12/05 03:27:21;;;;;;;28.33;20.05;;;;;;;4.71;100.00;102866.41;5132873;27;20055;-74
2023/12/05 03:29:46;;;;;;;33.08;20.52;;;;;;;3.89;100.00;102814.09;5129675;27;20057;-75
2023/12/05 03:32:12;;;;;;;29.45;20.15;;;;;;;4.80;100.00;102857.59;5131392;27;20110;-77
2023/12/05 03:34:39;;;;;;;30.40;19.67;;;;;;;3.79;100.00;102742.38;5132529;27;20051;-77
2023/12/05 03:37:04;;;;;;;31.60;20.23;;;;;;;4.66;100.00;102853.63;5131632;27;20061;-77
2023/12/05 03:39:31;;;;;;;31.02;19.60;;;;;;;4.32;100.00;102800.06;5132771;27;20055;-77
2023/12/05 03:41:56;;;;;;;29.75;19.55;;;;;;;4.07;100.00;102772.13;5132612;27;20019;-78
2023/12/05 03:44:22;;;;;;;30.80;19.98;;;;;;;4.39;100.00;102817.19;5132622;27;20083;-76
2023/12/05 03:46:47;;;;;;;29.52;19.80;;;;;;;4.83;100.00;102852.66;5132503;27;20027;-76
2023/12/05 03:49:13;;;;;;;31.63;20.13;;;;;;;4.77;100.00;102837.31;5130499;27;20061;-76
2023/12/05 03:51:38;;;;;;;32.08;21.00;;;;;;;4.09;100.00;102728.63;5131864;27;20033;-76
2023/12/05 03:54:04;;;;;;;33.97;20.63;;;;;;;4.69;100.00;102826.06;5130461;27;20027;-74
2023/12/05 03:56:29;;;;;;;32.25;20.88;;;;;;;4.50;100.00;102831.09;5132122;27;20027;-77
2023/12/05 03:58:56;;;;;;;29.40;18.88;;;;;;;3.89;100.00;102759.63;5112298;27;20023;-78
2023/12/05 04:01:21;;;;;;;33.83;21.25;;;;;;;4.22;100.00;102792.91;5130946;27;20081;-81
2023/12/05 04:03:47;;;;;;;35.55;21.20;;;;;;;4.22;100.00;102756.03;5114359;27;20476;-80
2023/12/05 04:06:23;;;;;;;29.58;20.17;;;;;;;4.44;100.00;102800.59;5131459;27;20054;-77
2023/12/05 04:08:49;;;;;;;33.45;20.65;;;;;;;3.97;100.00;102729.75;5099594;28;20051;-77
2023/12/05 04:11:15;;;;;;;33.40;20.80;;;;;;;4.43;100.00;102793.84;5097995;28;20413;-77
2023/12/05 04:13:42;;;;;;;34.80;21.67;;;;;;;4.24;100.00;102705.72;5096729;28;20114;-78
2023/12/05 04:16:07;;;;;;;37.63;21.40;;;;;;;4.58;100.00;102763.41;5102134;28;20410;-79
2023/12/05 04:18:33;;;;;;;33.92;19.70;;;;;;;5.21;100.00;102776.03;5102101;28;20028;-76
2023/12/05 04:20:59;;;;;;;34.50;21.55;;;;;;;3.92;100.00;102655.72;5099838;28;20436;-78
2023/12/05 04:23:24;;;;;;;32.55;21.60;;;;;;;4.38;100.00;102742.41;5096446;28;20039;-76
2023/12/05 04:25:49;;;;;;;34.53;20.23;;;;;;;4.30;100.00;102698.44;5095119;28;20249;-77
2023/12/05 04:28:15;;;;;;;34.50;21.25;;;;;;;4.28;100.00;102727.72;5101292;28;20028;-75
2023/12/05 04:30:41;;;;;;;33.72;20.35;;;;;;;3.88;100.00;102726.84;5102378;28;20398;-76
2023/12/05 04:33:06;;;;;;;29.58;19.52;;;;;;;4.38;100.00;102729.84;5093934;28;20733;-79
2023/12/05 04:35:32;;;;;;;34.00;21.33;;;;;;;4.51;100.00;102728.69;5099868;28;20028;-77
2023/12/05 04:37:57;;;;;;;36.83;24.15;;;;;;;5.01;100.00;102810.56;5095039;28;20457;-77
2023/12/05 04:40:23;;;;;;;32.80;21.55;;;;;;;4.33;100.00;102676.78;5103886;28;20054;-77
2023/12/05 04:42:49;;;;;;;39.97;24.77;;;;;;;4.51;100.00;102737.13;5096815;28;20513;-75
2023/12/05 04:45:16;;;;;;;38.30;22.88;;;;;;;4.46;100.00;102753.69;5097802;28;20494;-76
2023/12/05 04:47:41;;;;;;;35.08;23.77;;;;;;;5.06;100.00;102816.66;5099392;28;20107;-77
2023/12/05 04:50:08;;;;;;;37.80;23.55;;;;;;;4.80;100.00;102806.31;5097560;28;20188;-77
2023/12/05 04:52:34;;;;;;;38.90;24.65;;;;;;;4.54;100.00;102734.72;5098289;28;20046;-77
2023/12/05 04:55:00;;;;;;;36.22;23.67;;;;;;;5.12;100.00;102818.56;5099890;28;20494;-76
2023/12/05 04:57:25;;;;;;;41.65;24.10;;;;;;;4.88;100.00;102818.44;5103471;28;20098;-77
2023/12/05 04:59:51;;;;;;;38.53;25.10;;;;;;;4.38;100.00;102734.88;5099179;28;20471;-78
2023/12/05 05:02:16;;;;;;;37.55;24.42;;;;;;;4.63;100.00;102736.75;5102336;28;20553;-77
2023/12/05 05:04:42;;;;;;;36.33;22.95;;;;;;;4.56;100.00;102775.94;5100482;28;20032;-77
2023/12/05 05:07:07;;;;;;;40.25;26.33;;;;;;;4.61;100.00;102758.50;5097266;27;20524;-75
2023/12/05 05:09:35;;;;;;;45.40;28.42;;;;;;;4.89;100.00;102825.19;5130412;27;20023;-74
2023/12/05 05:12:00;;;;;;;41.72;27.02;;;;;;;4.85;100.00;102813.25;5129366;27;20127;-71
2023/12/05 05:14:26;;;;;;;46.30;31.48;;;;;;;4.61;100.00;102774.47;5111464;27;20143;-74
2023/12/05 05:16:51;;;;;;;42.88;28.30;;;;;;;4.58;100.00;102764.25;5128509;27;20027;-74
2023/12/05 05:19:17;;;;;;;39.45;26.70;;;;;;;4.66;100.00;102767.97;5129017;27;20051;-74
2023/12/05 05:21:42;;;;;;;41.38;26.60;;;;;;;5.07;100.00;102845.28;5128689;27;20076;-75
2023/12/05 05:24:08;;;;;;;36.03;23.02;;;;;;;5.04;100.00;102843.47;5128497;27;20110;-74
2023/12/05 05:26:34;;;;;;;40.65;25.50;;;;;;;5.05;100.00;102840.13;5093300;27;20038;-73
2023/12/05 05:28:59;;;;;;;39.75;24.33;;;;;;;4.60;100.00;102756.75;5127392;27;20026;-75
2023/12/05 05:31:24;;;;;;;40.63;25.00;;;;;;;4.59;100.00;102753.41;5127810;27;20031;-77
2023/12/05 05:33:50;;;;;;;40.78;26.38;;;;;;;4.76;100.00;102775.09;5128311;27;20027;-76
2023/12/05 05:36:15;;;;;;;46.22;28.77;;;;;;;4.83;100.00;102763.63;5128282;27;20910;-75
2023/12/05 05:38:41;;;;;;;43.10;27.10;;;;;;;4.27;100.00;102742.00;5126274;27;20031;-73
2023/12/05 05:41:07;;;;;;;46.30;27.17;;;;;;;5.11;100.00;102877.38;5126973;27;20026;-72
2023/12/05 05:43:33;;;;;;;48.72;28.55;;;;;;;4.76;100.00;102799.44;5128563;27;20071;-75
2023/12/05 05:46:00;;;;;;;58.20;36.20;;;;;;;5.20;100.00;102852.50;5127953;27;20617;-75
2023/12/05 05:48:25;;;;;;;63.65;30.27;;;;;;;5.54;100.00;102867.31;5126645;27;20019;-76
2023/12/05 05:50:51;;;;;;;49.28;29.48;;;;;;;5.41;100.00;102867.66;5127966;27;20837;-73
2023/12/05 05:53:17;;;;;;;46.00;29.55;;;;;;;6.53;100.00;102876.16;5110430;27;20027;-77
2023/12/05 05:55:42;;;;;;;40.20;26.45;;;;;;;5.21;100.00;102831.53;5128299;27;20111;-75
2023/12/05 05:58:11;;;;;;;43.90;28.05;;;;;;;4.98;100.00;102853.31;5128526;27;20076;-72
2023/12/05 06:00:37;;;;;;;43.75;27.48;;;;;;;5.13;100.00;102853.91;5126244;27;20102;-76
2023/12/05 06:03:03;;;;;;;44.72;27.85;;;;;;;5.10;100.00;102861.38;5127877;27;20113;-74
2023/12/05 06:05:29;;;;;;;44.00;26.25;;;;;;;5.22;100.00;102868.56;5128530;27;20034;-75
2023/12/05 06:07:55;;;;;;;41.40;25.63;;;;;;;4.61;100.00;102794.63;5128135;27;20047;-74
2023/12/05 06:10:22;;;;;;;40.92;25.67;;;;;;;4.99;100.00;102827.28;5110334;28;20068;-75
2023/12/05 06:12:48;;;;;;;42.20;25.33;;;;;;;4.84;100.00;102806.50;5109833;28;20019;-76
2023/12/05 06:15:13;;;;;;;45.88;27.20;;;;;;;5.23;100.00;102876.19;5109665;28;20027;-74
2023/12/05 06:17:39;;;;;;;41.85;25.67;;;;;;;4.85;100.00;102813.25;5128614;28;20034;-71
2023/12/05 06:20:06;;;;;;;40.38;24.95;;;;;;;4.68;100.00;102805.81;5109795;27;21807;-74
2023/12/05 06:22:31;;;;;;;41.45;26.95;;;;;;;4.82;100.00;102818.19;5107512;28;20513;-73
2023/12/05 06:24:57;;;;;;;46.35;27.80;;;;;;;5.10;100.00;102880.69;5128147;27;20050;-75
2023/12/05 06:27:23;;;;;;;42.88;26.75;;;;;;;5.26;100.00;102893.97;5127651;28;20024;-75
2023/12/05 06:29:48;;;;;;;43.95;25.15;;;;;;;4.82;100.00;102825.75;5126659;28;20107;-76
2023/12/05 06:32:14;;;;;;;39.97;25.52;;;;;;;4.77;100.00;102827.22;5109976;28;20134;-75
2023/12/05 06:34:39;;;;;;;42.13;25.83;;;;;;;4.77;100.00;102821.31;5127286;28;20070;-74
2023/12/05 06:37:05;;;;;;;108.60;75.18;;;;;;;5.18;100.00;102882.72;5128853;27;20027;-76
2023/12/05 06:39:30;;;;;;;51.50;33.78;;;;;;;5.12;100.00;102905.16;5128625;28;22486;-76
2023/12/05 06:41:56;;;;;;;50.53;30.15;;;;;;;5.46;100.00;102926.72;5128066;28;20027;-76
2023/12/05 06:44:21;;;;;;;49.20;28.17;;;;;;;5.56;100.00;102923.75;5110142;28;20058;-77
2023/12/05 06:46:47;;;;;;;48.55;28.90;;;;;;;5.17;100.00;102895.25;5128271;27;20042;-75
2023/12/05 06:49:12;;;;;;;46.75;27.27;;;;;;;5.24;100.00;102918.28;5127840;28;20035;-75
2023/12/05 06:51:40;;;;;;;44.28;26.27;;;;;;;5.42;100.00;102922.34;5128474;28;20016;-77
2023/12/05 06:54:05;;;;;;;46.03;25.52;;;;;;;5.08;100.00;102860.44;5127994;28;20477;-77
2023/12/05 06:56:31;;;;;;;47.08;29.00;;;;;;;5.46;100.00;102929.22;5128830;28;20032;-79
2023/12/05 06:58:56;;;;;;;50.45;29.55;;;;;;;5.86;100.00;102940.16;5128814;28;20031;-76
2023/12/05 07:01:22;;;;;;;44.80;25.20;;;;;;;4.84;100.00;102864.47;5110498;28;20118;-76
2023/12/05 07:03:47;;;;;;;44.15;26.65;;;;;;;4.92;100.00;102849.66;5128508;28;20398;-77
2023/12/05 07:06:13;;;;;;;44.17;28.52;;;;;;;5.42;100.00;102928.25;5127817;28;20031;-75
2023/12/05 07:08:39;;;;;;;48.45;29.05;;;;;;;5.48;100.00;102932.69;5128523;28;20051;-75
2023/12/05 07:11:05;;;;;;;49.22;31.55;;;;;;;5.24;100.00;102933.41;5129192;27;20047;-77
2023/12/05 07:13:30;;;;;;;47.70;28.67;;;;;;;4.52;100.00;102800.91;5131971;27;20054;-78
2023/12/05 07:15:56;;;;;;;43.33;28.35;;;;;;;4.64;100.00;102835.06;5132093;27;20076;-76
2023/12/05 07:18:22;;;;;;;50.47;29.25;;;;;;;5.11;100.00;102905.09;5132436;27;20100;-77
2023/12/05 07:20:48;;;;;;;51.88;29.27;;;;;;;5.10;100.00;102894.16;5113976;27;20059;-74
2023/12/05 07:23:13;;;;;;;54.08;32.28;;;;;;;4.45;100.00;102787.22;5131973;27;20054;-77
2023/12/05 07:25:39;;;;;;;54.17;35.88;;;;;;;5.04;100.00;102903.13;5113985;27;20027;-77
2023/12/05 07:28:04;;;;;;;70.97;48.60;;;;;;;4.72;100.00;102837.88;5130275;27;20061;-74
2023/12/05 07:30:31;;;;;;;53.35;34.10;;;;;;;5.17;100.00;102898.63;5131831;27;20023;-76
2023/12/05 07:32:56;;;;;;;56.30;32.97;;;;;;;5.13;100.00;102916.97;5131533;27;20027;-75
2023/12/05 07:35:22;;;;;;;52.67;32.75;;;;;;;4.66;100.00;102853.63;5131845;27;20027;-76
2023/12/05 07:37:47;;;;;;;49.65;30.48;;;;;;;5.32;100.00;102943.81;5131112;27;20596;-76
2023/12/05 07:40:13;;;;;;;52.03;30.52;;;;;;;5.12;100.00;102900.13;5113475;27;20393;-76
2023/12/05 07:42:39;;;;;;;46.70;27.98;;;;;;;5.38;100.00;102940.66;5113356;27;20493;-77
2023/12/05 07:45:07;;;;;;;47.15;29.23;;;;;;;5.02;100.00;102887.94;5112827;27;20126;-75
2023/12/05 07:47:33;;;;;;;50.42;27.90;;;;;;;5.19;100.00;102923.91;5131157;27;20065;-76
2023/12/05 07:49:59;;;;;;;48.65;27.75;;;;;;;5.42;100.00;102972.78;5130439;27;20091;-76
2023/12/05 07:52:25;;;;;;;49.50;27.73;;;;;;;4.93;100.00;102871.56;5131834;27;20436;-76
2023/12/05 07:54:50;;;;;;;45.67;28.92;;;;;;;5.53;100.00;102992.59;5131558;27;20144;-76
2023/12/05 07:57:22;;;;;;;42.45;26.42;;;;;;;5.21;100.00;102983.69;5131236;27;20505;-72
2023/12/05 07:59:48;;;;;;;46.05;26.85;;;;;;;5.35;100.00;102989.31;5131057;27;20023;-76
2023/12/05 08:02:13;;;;;;;46.67;27.00;;;;;;;5.40;100.00;102974.38;5131442;27;20035;-75
2023/12/05 08:04:39;;;;;;;44.80;27.58;;;;;;;5.31;100.00;102953.84;5131218;27;20027;-77
2023/12/05 08:07:05;;;;;;;52.03;30.52;;;;;;;5.06;100.00;102945.25;5128861;27;20031;-77
2023/12/05 08:09:31;;;;;;;47.97;28.38;;;;;;;5.58;100.00;103013.00;5131368;27;20499;-77
2023/12/05 08:11:56;;;;;;;49.15;27.63;;;;;;;5.47;100.00;103014.22;5131324;27;20064;-77
2023/12/05 08:14:22;;;;;;;47.97;28.30;;;;;;;5.55;100.00;103028.00;5131000;27;20068;-77
2023/12/05 08:16:47;;;;;;;46.92;28.83;;;;;;;5.51;100.00;103031.19;5130572;27;20027;-77
2023/12/05 08:19:13;;;;;;;45.85;26.33;;;;;;;4.84;100.00;102909.84;5111843;27;20023;-76
2023/12/05 08:21:38;;;;;;;46.80;25.90;;;;;;;5.27;100.00;102960.38;5130780;27;20046;-76
2023/12/05 08:24:04;;;;;;;44.45;26.45;;;;;;;5.36;100.00;102992.72;5112259;27;20467;-76
2023/12/05 08:26:31;;;;;;;53.85;31.05;;;;;;;5.19;100.00;102976.84;5129096;27;20023;-75
2023/12/05 08:28:58;;;;;;;53.85;29.70;;;;;;;5.16;100.00;102975.09;5130436;27;20034;-76
2023/12/05 08:31:24;;;;;;;47.13;27.40;;;;;;;4.78;100.00;102914.63;5130511;27;20031;-76
2023/12/05 08:33:50;;;;;;;50.45;28.13;;;;;;;5.46;100.00;103031.00;5130504;27;20019;-74
2023/12/05 08:36:15;;;;;;;54.45;32.03;;;;;;;5.31;100.00;103012.69;5111278;27;20054;-75
2023/12/05 08:38:40;;;;;;;56.28;32.65;;;;;;;5.54;100.00;103049.00;5129932;27;20031;-74
2023/12/05 08:41:06;;;;;;;72.28;41.45;;;;;;;5.12;100.00;102978.28;5129949;27;20058;-76
2023/12/05 08:43:32;;;;;;;60.45;33.58;;;;;;;4.81;100.00;102950.03;5130156;27;20078;-76
2023/12/05 08:45:58;;;;;;;78.70;47.53;;;;;;;5.19;100.00;103025.66;5111806;27;20031;-76
2023/12/05 08:48:24;;;;;;;60.90;32.53;;;;;;;5.26;100.00;103027.66;5129933;27;20027;-72
2023/12/05 08:50:49;;;;;;;47.45;27.60;;;;;;;5.73;100.00;103117.97;5111623;27;20428;-75
2023/12/05 08:53:15;;;;;;;50.00;28.52;;;;;;;5.73;100.00;103134.75;5130346;27;20106;-75
2023/12/05 08:55:42;;;;;;;52.33;30.63;;;;;;;5.69;100.00;103127.84;5129596;27;20031;-76
2023/12/05 08:58:07;;;;;;;57.97;31.65;;;;;;;5.50;100.00;103112.72;5111708;27;20046;-77
2023/12/05 09:00:34;;;;;;;70.68;36.22;;;;;;;5.78;100.00;103164.47;5129120;27;20024;-76
2023/12/05 09:03:00;;;;;;;76.97;41.60;;;;;;;5.69;100.00;103166.59;5128673;27;20057;-76
2023/12/05 09:05:26;;;;;;;74.93;42.65;;;;;;;5.71;100.00;103156.53;5129365;27;20038;-76
2023/12/05 09:07:51;;;;;;;64.15;39.17;;;;;;;5.32;100.00;103096.78;5129538;27;20035;-72
2023/12/05 09:10:17;;;;;;;65.85;38.15;;;;;;;6.23;100.00;103240.47;5129571;27;20031;-76
2023/12/05 09:12:43;;;;;;;76.65;45.25;;;;;;;6.16;100.00;103251.97;5111327;27;20045;-76
2023/12/05 09:15:08;;;;;;;77.57;43.55;;;;;;;5.60;100.00;103153.59;5129629;27;20102;-76
2023/12/05 09:17:34;;;;;;;70.03;41.28;;;;;;;6.14;100.00;103278.81;5129859;27;20023;-75
2023/12/05 09:20:00;;;;;;;67.60;40.65;;;;;;;5.78;100.00;103219.13;5111018;27;20493;-75
2023/12/05 09:22:25;;;;;;;62.15;40.15;;;;;;;5.96;100.00;103233.44;5129728;27;20102;-76
2023/12/05 09:24:51;;;;;;;67.00;40.83;;;;;;;6.08;100.00;103281.13;5111438;27;20031;-77
2023/12/05 09:27:16;;;;;;;59.20;38.17;;;;;;;5.53;100.00;103175.94;5129438;27;20462;-76
2023/12/05 09:29:42;;;;;;;74.60;45.25;;;;;;;6.02;100.00;103283.38;5129534;27;20034;-77
2023/12/05 09:32:07;;;;;;;64.40;39.28;;;;;;;6.06;100.00;103293.66;5110854;27;20035;-76
2023/12/05 09:34:33;;;;;;;57.47;36.22;;;;;;;5.88;100.00;103244.88;5128508;27;20080;-76
2023/12/05 09:36:58;;;;;;;60.60;37.97;;;;;;;6.09;100.00;103270.19;5129262;27;20528;-76
2023/12/05 09:39:24;;;;;;;70.28;44.88;;;;;;;6.62;100.00;103359.28;5129397;27;20034;-71
2023/12/05 09:41:52;;;;;;;87.68;55.42;;;;;;;6.18;100.00;103287.44;5129133;27;20023;-76
2023/12/05 09:44:21;;;;;;;70.53;45.15;;;;;;;6.19;100.00;103297.59;5129068;27;20122;-76
2023/12/05 09:46:50;;;;;;;63.88;40.63;;;;;;;6.18;100.00;103335.41;5129934;27;20602;-77
2023/12/05 09:49:18;;;;;;;66.15;43.45;;;;;;;6.49;100.00;103353.63;5129306;27;20038;-76
2023/12/05 09:51:45;;;;;;;62.25;42.97;;;;;;;6.39;100.00;103356.56;5110406;27;20176;-77
2023/12/05 09:54:12;;;;;;;70.40;46.72;;;;;;;5.70;100.00;103228.03;5129108;27;20023;-76
2023/12/05 09:56:39;;;;;;;66.25;46.67;;;;;;;6.34;100.00;103317.59;5128863;27;20042;-75
2023/12/05 09:59:04;;;;;;;74.78;52.08;;;;;;;6.43;100.00;103336.56;5109694;28;20031;-77
2023/12/05 10:01:34;;;;;;;80.03;53.42;;;;;;;5.80;100.00;103232.69;5110111;27;20037;-76
2023/12/05 10:04:01;;;;;;;70.85;48.03;;;;;;;5.66;100.00;103222.00;5110914;27;20022;-77
2023/12/05 10:06:29;;;;;;;72.90;51.60;;;;;;;6.47;100.00;103333.34;5110666;28;20035;-76
2023/12/05 10:08:56;;;;;;;101.53;77.70;;;;;;;6.04;100.00;103257.38;5127174;27;20134;-76
2023/12/05 10:11:27;;;;;;;96.43;79.63;;;;;;;6.58;100.00;103328.75;5128154;27;20038;-71
2023/12/05 10:13:53;;;;;;;61.80;43.97;;;;;;;6.10;100.00;103266.88;5128762;27;20569;-77
2023/12/05 10:16:19;;;;;;;50.55;30.85;;;;;;;6.48;100.00;103349.38;5128665;28;20050;-76
2023/12/05 10:18:47;;;;;;;53.50;29.25;;;;;;;6.58;100.00;103365.00;5109964;28;20034;-77
2023/12/05 10:21:13;;;;;;;44.05;24.50;;;;;;;6.12;100.00;103314.13;5127634;27;20062;-76
2023/12/05 10:23:39;;;;;;;40.22;23.52;;;;;;;6.44;100.00;103385.44;5128009;28;20059;-76
2023/12/05 10:26:05;;;;;;;48.58;26.13;;;;;;;6.27;100.00;103361.94;5110222;28;20031;-80
2023/12/05 10:28:30;;;;;;;40.75;23.50;;;;;;;6.00;100.00;103378.41;4407923;27;10000800;-76
2023/12/05 10:30:57;;;;;;;42.28;26.08;;;;;;;6.27;100.00;103452.91;5116664;28;20069;-76
2023/12/05 10:33:22;;;;;;;40.03;23.13;;;;;;;6.48;100.00;103514.50;5097088;28;20058;-80
2023/12/05 10:35:48;;;;;;;30.85;18.92;;;;;;;6.10;100.00;103489.16;5118698;28;20485;-76
2023/12/05 10:38:18;;;;;;;30.55;18.85;;;;;;;6.00;100.00;103524.88;5116563;27;20035;-79
2023/12/05 10:40:57;;;;;;;28.75;18.40;;;;;;;6.60;100.00;103681.06;5118352;28;20039;-76
2023/12/05 10:43:27;;;;;;;24.75;15.73;;;;;;;6.18;100.00;103667.19;5111258;27;20087;-77
2023/12/05 10:45:54;;;;;;;27.67;17.38;;;;;;;6.76;100.00;103782.16;5114215;27;20023;-74
2023/12/05 10:48:21;;;;;;;27.50;16.85;;;;;;;6.64;100.00;103779.88;5119006;27;20132;-77
2023/12/05 10:50:49;;;;;;;25.05;15.88;;;;;;;7.09;100.00;103851.22;5104668;27;20039;-77
2023/12/05 10:53:15;;;;;;;25.30;16.05;;;;;;;7.95;100.00;103985.41;5119392;27;20075;-78
2023/12/05 10:55:41;;;;;;;25.50;16.33;;;;;;;7.20;100.00;103910.81;5105396;27;20042;-77
2023/12/05 10:58:11;;;;;;;25.33;15.65;;;;;;;6.37;100.00;103798.75;5121707;27;20031;-73
2023/12/05 11:00:37;;;;;;;20.50;14.02;;;;;;;7.11;100.00;103902.78;5112314;27;20074;-77
2023/12/05 11:03:03;;;;;;;23.20;14.10;;;;;;;7.20;100.00;103910.81;5133960;27;20062;-78
2023/12/05 11:05:30;;;;;;;24.25;15.57;;;;;;;6.49;100.00;103790.91;5132681;27;20073;-78